TJIG/SIG METAR and TAF weather

Enter ICAO airport designator
Station Type Date Time Source
TJIG METAR 2022/06/25 22:45 UTC NOAA

TJIG 252245Z 10015KT 10SM SCT030 SCT070 28/25 A2998


Station Type Date Time Source
TJIG Decoded METAR 2022/06/25 22:45 UTC NOAA

Station name not available
Jun 25, 2022 - 06:45 PM EDT / 2022.06.25 2245 UTC
Wind: from the E (100 degrees) at 17 MPH (15 KT):0
Visibility: 10 mile(s):0
Sky conditions: partly cloudy
Temperature: 82 F (28 C)
Dew Point: 77 F (25 C)
Relative Humidity: 83%
Pressure (altimeter): 29.98 in. Hg (1015 hPa)
ob: TJIG 252245Z 10015KT 10SM SCT030 SCT070 28/25 A2998
cycle: 23

Station Type Date Time Source
TJIG TAF UTC NOAA

Error!

Example: see airport list